createdAt,value
2022-10-18T00:02:20.388Z,11.74
2022-10-18T00:05:32.713Z,11.73
2022-10-18T00:08:45.453Z,11.70
2022-10-18T00:11:57.557Z,11.71
2022-10-18T00:15:12.756Z,11.74
2022-10-18T00:18:25.724Z,11.61
2022-10-18T00:21:38.107Z,11.61
2022-10-18T00:24:50.479Z,11.45
2022-10-18T00:28:02.408Z,11.31
2022-10-18T00:31:26.094Z,11.28
2022-10-18T00:34:38.052Z,11.32
2022-10-18T00:37:50.074Z,11.30
2022-10-18T00:41:02.057Z,11.28
2022-10-18T00:44:45.528Z,11.24
2022-10-18T00:48:01.184Z,11.01
2022-10-18T00:51:13.490Z,10.99
2022-10-18T00:54:27.234Z,11.04
2022-10-18T00:57:39.983Z,11.06
2022-10-18T01:00:52.125Z,10.96
2022-10-18T01:04:04.622Z,11.02
2022-10-18T01:07:25.040Z,11.03
2022-10-18T01:10:44.442Z,10.96
2022-10-18T01:14:08.333Z,10.80
2022-10-18T01:17:25.506Z,10.84
2022-10-18T01:21:06.493Z,10.87
2022-10-18T01:24:55.503Z,10.86
2022-10-18T01:28:20.180Z,10.76
2022-10-18T01:31:36.191Z,10.80
2022-10-18T01:34:52.094Z,10.77
2022-10-18T01:38:09.659Z,10.79
2022-10-18T01:41:24.870Z,10.73
2022-10-18T01:44:39.015Z,10.70
2022-10-18T01:47:53.171Z,10.73
2022-10-18T01:51:05.102Z,10.72
2022-10-18T01:54:19.951Z,10.69
2022-10-18T01:57:37.907Z,10.62
2022-10-18T02:00:50.286Z,10.60
2022-10-18T02:04:08.448Z,10.55
2022-10-18T02:07:28.068Z,10.51
2022-10-18T02:10:44.458Z,10.56
2022-10-18T02:14:01.219Z,10.44
2022-10-18T02:17:16.132Z,10.33
2022-10-18T02:20:32.313Z,10.20
2022-10-18T02:23:44.980Z,10.09
2022-10-18T02:26:56.776Z,10.00
2022-10-18T02:30:09.611Z,10.06
2022-10-18T02:33:26.802Z,9.97
2022-10-18T02:36:44.510Z,9.86
2022-10-18T02:39:57.790Z,9.70
2022-10-18T02:43:11.648Z,9.64
2022-10-18T02:46:23.831Z,9.69
2022-10-18T02:49:35.650Z,9.68
2022-10-18T02:52:47.418Z,9.68
2022-10-18T02:55:59.069Z,9.72
2022-10-18T02:59:10.732Z,9.65
2022-10-18T03:02:22.402Z,9.60
2022-10-18T03:05:34.000Z,9.61
2022-10-18T03:08:45.801Z,9.60
2022-10-18T03:11:57.432Z,9.68
2022-10-18T03:15:10.713Z,9.62
2022-10-18T03:18:22.395Z,9.61
2022-10-18T03:21:34.086Z,9.76
2022-10-18T03:24:45.847Z,9.95
2022-10-18T03:27:57.737Z,10.05
2022-10-18T03:31:10.672Z,10.08
2022-10-18T03:34:22.498Z,10.04
2022-10-18T03:37:34.247Z,9.93
2022-10-18T03:40:45.882Z,9.92
2022-10-18T03:43:57.509Z,10.00
2022-10-18T03:47:09.345Z,9.99
2022-10-18T03:50:21.608Z,9.95
2022-10-18T03:53:33.282Z,9.92
2022-10-18T03:56:45.093Z,9.79
2022-10-18T03:59:56.816Z,9.62
2022-10-18T04:03:08.575Z,9.53
2022-10-18T04:06:20.394Z,9.38
2022-10-18T04:09:32.188Z,9.39
2022-10-18T04:12:43.934Z,9.39
2022-10-18T04:15:55.819Z,9.45
2022-10-18T04:19:07.565Z,9.53
2022-10-18T04:22:20.310Z,9.57
2022-10-18T04:25:32.938Z,9.50
2022-10-18T04:28:45.023Z,9.49
2022-10-18T04:31:57.004Z,9.58
2022-10-18T04:35:09.868Z,9.52
2022-10-18T04:38:21.536Z,9.55
2022-10-18T04:41:33.254Z,9.49
2022-10-18T04:44:47.559Z,9.56
2022-10-18T04:47:59.310Z,9.44
2022-10-18T04:51:11.718Z,9.39
2022-10-18T04:54:26.462Z,9.31
2022-10-18T04:57:37.280Z,9.28
2022-10-18T05:00:49.646Z,9.30
2022-10-18T05:04:01.930Z,9.37
2022-10-18T05:07:13.625Z,9.40
2022-10-18T05:10:25.467Z,9.39
2022-10-18T05:13:38.316Z,9.42
2022-10-18T05:16:50.027Z,9.30
2022-10-18T05:20:01.898Z,9.38
2022-10-18T05:23:14.164Z,9.41
2022-10-18T05:26:25.982Z,9.42
2022-10-18T05:29:38.107Z,9.45
2022-10-18T05:32:49.807Z,9.44
2022-10-18T05:36:01.667Z,9.46
2022-10-18T05:39:13.707Z,9.40
2022-10-18T05:42:25.423Z,9.50
2022-10-18T05:45:37.237Z,9.63
2022-10-18T05:48:51.416Z,9.72
2022-10-18T05:52:03.281Z,9.67
2022-10-18T05:55:15.737Z,9.70
2022-10-18T05:58:27.557Z,9.77
2022-10-18T06:01:39.298Z,9.77
2022-10-18T06:04:51.219Z,9.82
2022-10-18T06:08:06.476Z,9.96
2022-10-18T06:11:20.579Z,10.07
2022-10-18T06:14:32.197Z,10.14
2022-10-18T06:17:43.857Z,10.31
2022-10-18T06:20:58.058Z,10.61
2022-10-18T06:24:10.706Z,11.31
2022-10-18T06:27:22.501Z,12.03
2022-10-18T06:30:46.238Z,12.73
2022-10-18T06:33:59.627Z,13.32
2022-10-18T06:37:19.013Z,13.38
2022-10-18T06:40:33.872Z,13.26
2022-10-18T06:43:58.190Z,13.48
2022-10-18T06:47:11.640Z,13.58
2022-10-18T06:50:23.786Z,13.57
2022-10-18T06:53:44.018Z,13.49
2022-10-18T06:56:54.467Z,13.41
2022-10-18T07:00:07.306Z,13.52
2022-10-18T07:03:19.081Z,13.95
2022-10-18T07:06:42.805Z,14.17
2022-10-18T07:13:52.639Z,14.78
2022-10-18T07:17:06.473Z,14.89
2022-10-18T07:20:19.225Z,14.99
2022-10-18T07:23:30.936Z,15.07
2022-10-18T07:26:42.863Z,15.17
2022-10-18T07:33:10.810Z,15.42
2022-10-18T07:36:24.452Z,15.52
2022-10-18T07:39:36.521Z,15.79
2022-10-18T07:42:48.245Z,16.14
2022-10-18T07:46:05.613Z,16.71
2022-10-18T07:49:18.089Z,16.78
2022-10-18T07:52:29.923Z,16.92
2022-10-18T07:55:41.627Z,16.74
2022-10-18T07:58:55.474Z,17.28
2022-10-18T08:02:07.543Z,17.43
2022-10-18T08:05:37.169Z,17.66
2022-10-18T08:08:52.122Z,17.97
2022-10-18T08:12:03.921Z,18.56
2022-10-18T08:15:17.251Z,19.02
2022-10-18T08:18:29.061Z,19.22
2022-10-18T08:21:40.691Z,19.98
2022-10-18T08:24:52.388Z,21.08
2022-10-18T08:28:05.312Z,21.86
2022-10-18T08:31:21.764Z,21.91
2022-10-18T08:34:34.154Z,22.32
2022-10-18T08:37:46.186Z,22.52
2022-10-18T08:40:58.585Z,23.41
2022-10-18T08:44:17.716Z,23.13
2022-10-18T08:47:34.542Z,23.91
2022-10-18T08:50:48.358Z,24.69
2022-10-18T08:54:07.147Z,25.58
2022-10-18T08:57:22.530Z,25.78
2022-10-18T09:00:38.592Z,25.39
2022-10-18T09:04:22.545Z,24.94
2022-10-18T09:08:03.650Z,24.86
2022-10-18T09:11:28.350Z,25.07
2022-10-18T09:14:58.761Z,25.10
2022-10-18T09:18:27.337Z,24.61
2022-10-18T09:21:48.802Z,23.05
2022-10-18T09:25:07.433Z,22.50
2022-10-18T09:28:27.550Z,22.61
2022-10-18T09:32:13.663Z,22.32
2022-10-18T09:35:30.523Z,22.77
2022-10-18T10:38:40.802Z,22.08
2022-10-18T11:01:39.251Z,23.13
2022-10-18T11:11:12.974Z,23.76
2022-10-18T11:17:37.337Z,23.51
2022-10-18T11:23:51.222Z,24.13
2022-10-18T11:34:07.708Z,23.76
2022-10-18T11:37:26.276Z,23.89
2022-10-18T11:40:37.449Z,23.92
2022-10-18T11:44:02.712Z,24.39
2022-10-18T11:47:16.442Z,24.80
2022-10-18T11:50:36.990Z,25.13
2022-10-18T11:53:55.732Z,25.12
2022-10-18T11:57:13.698Z,24.80
2022-10-18T12:00:39.398Z,24.38
2022-10-18T12:04:01.643Z,24.25
2022-10-18T12:07:21.172Z,24.27
2022-10-18T12:10:44.393Z,24.34
2022-10-18T12:13:54.706Z,24.09
2022-10-18T12:17:51.011Z,23.96
2022-10-18T12:20:34.340Z,23.86
2022-10-18T12:23:53.601Z,23.73
2022-10-18T12:27:08.365Z,23.40
2022-10-18T12:30:27.147Z,23.38
2022-10-18T12:33:44.878Z,23.33
2022-10-18T12:37:38.796Z,23.29
2022-10-18T12:40:54.717Z,23.22
2022-10-18T12:44:10.702Z,23.24
2022-10-18T12:47:30.466Z,23.16
2022-10-18T12:50:45.897Z,22.91
2022-10-18T12:54:04.655Z,22.91
2022-10-18T12:57:27.814Z,22.93
2022-10-18T13:01:05.385Z,22.83
2022-10-18T13:04:39.395Z,22.76
2022-10-18T13:07:51.375Z,22.74
2022-10-18T13:11:36.406Z,22.72
2022-10-18T13:15:24.347Z,22.52
2022-10-18T13:18:27.957Z,22.51
2022-10-18T13:21:50.844Z,22.50
2022-10-18T13:25:10.271Z,22.41
2022-10-18T13:28:33.914Z,22.36
2022-10-18T13:31:51.433Z,22.37
2022-10-18T13:35:03.484Z,22.31
2022-10-18T13:38:31.911Z,22.23
2022-10-18T13:42:24.844Z,22.08
2022-10-18T13:46:04.076Z,21.98
2022-10-18T13:49:31.105Z,21.91
2022-10-18T13:52:53.023Z,21.80
2022-10-18T13:56:50.959Z,21.74
2022-10-18T14:00:22.976Z,21.67
2022-10-18T14:04:16.638Z,21.61
2022-10-18T14:07:30.670Z,21.53
2022-10-18T14:11:01.902Z,21.46
2022-10-18T14:14:11.254Z,21.43
2022-10-18T14:17:31.565Z,21.37
2022-10-18T14:24:00.013Z,21.29
2022-10-18T14:27:26.157Z,21.27
2022-10-18T14:30:38.304Z,21.23
2022-10-18T14:33:57.286Z,21.18
2022-10-18T14:37:07.628Z,21.17
2022-10-18T14:40:35.854Z,21.10
2022-10-18T14:43:48.579Z,21.00
2022-10-18T14:47:07.959Z,20.91
2022-10-18T14:50:31.083Z,20.64
2022-10-18T14:53:45.681Z,20.76
2022-10-18T14:56:57.778Z,20.64
2022-10-18T15:00:20.670Z,20.52
2022-10-18T15:03:35.777Z,20.37
2022-10-18T15:06:52.574Z,20.24
2022-10-18T15:10:06.432Z,20.08
2022-10-18T15:13:20.698Z,19.92
2022-10-18T15:16:35.581Z,19.85
2022-10-18T15:20:01.795Z,19.76
2022-10-18T15:23:28.276Z,19.69
2022-10-18T15:26:38.397Z,19.55
2022-10-18T15:29:50.409Z,19.39
2022-10-18T15:33:05.222Z,19.26
2022-10-18T15:36:26.204Z,19.16
2022-10-18T15:39:38.386Z,19.04
2022-10-18T15:42:50.615Z,18.99
2022-10-18T15:46:06.720Z,18.93
2022-10-18T15:49:58.297Z,18.94
2022-10-18T15:53:37.817Z,18.88
2022-10-18T15:56:50.752Z,18.81
2022-10-18T16:00:08.957Z,18.80
2022-10-18T16:03:28.357Z,18.71
2022-10-18T16:06:41.350Z,18.61
2022-10-18T16:09:53.065Z,18.56
2022-10-18T16:13:04.864Z,18.51
2022-10-18T16:16:21.627Z,18.46
2022-10-18T16:19:33.631Z,18.42
2022-10-18T16:22:45.503Z,18.40
2022-10-18T16:25:58.423Z,18.35
2022-10-18T16:29:11.794Z,18.34
2022-10-18T16:32:23.883Z,18.28
2022-10-18T16:35:35.943Z,18.26
2022-10-18T16:44:49.303Z,18.14
2022-10-18T16:48:02.958Z,18.13
2022-10-18T16:51:18.899Z,18.11
2022-10-18T16:54:32.813Z,18.06
2022-10-18T16:57:45.060Z,18.08
2022-10-18T17:00:58.619Z,18.08
2022-10-18T17:04:12.417Z,18.11
2022-10-18T17:07:30.280Z,18.07
2022-10-18T17:10:44.154Z,18.01
2022-10-18T17:14:01.221Z,17.99
2022-10-18T17:20:23.326Z,17.98
2022-10-18T17:23:36.611Z,17.96
2022-10-18T17:26:48.407Z,17.86
2022-10-18T17:30:01.627Z,17.77
2022-10-18T17:33:14.887Z,17.73
2022-10-18T17:36:26.976Z,17.64
2022-10-18T17:39:39.847Z,17.61
2022-10-18T17:42:51.851Z,17.56
2022-10-18T17:46:04.078Z,17.52
2022-10-18T17:49:16.927Z,17.46
2022-10-18T17:52:28.932Z,17.46
2022-10-18T17:55:41.057Z,17.44
2022-10-18T17:58:56.007Z,17.39
2022-10-18T18:02:07.910Z,17.41
2022-10-18T18:05:19.804Z,17.38
2022-10-18T18:08:32.103Z,17.35
2022-10-18T18:11:48.122Z,17.34
2022-10-18T18:15:00.040Z,17.23
2022-10-18T18:18:12.081Z,17.28
2022-10-18T18:24:53.478Z,17.20
2022-10-18T18:28:07.620Z,17.23
2022-10-18T18:31:23.510Z,17.18
2022-10-18T18:34:36.553Z,17.12
2022-10-18T18:37:48.505Z,17.03
2022-10-18T18:41:10.891Z,16.98
2022-10-18T18:44:25.033Z,16.92
2022-10-18T18:50:38.053Z,16.89
2022-10-18T18:53:53.721Z,16.84
2022-10-18T18:57:08.212Z,16.79
2022-10-18T19:00:22.722Z,16.77
2022-10-18T19:03:34.561Z,16.76
2022-10-18T19:06:51.409Z,16.77
2022-10-18T19:13:04.076Z,16.80
2022-10-18T19:16:34.351Z,16.78
2022-10-18T19:19:52.000Z,16.81
2022-10-18T19:23:03.707Z,16.84
2022-10-18T19:26:22.556Z,16.93
2022-10-18T19:29:37.277Z,16.99
2022-10-18T19:32:51.387Z,17.10
2022-10-18T19:36:05.008Z,17.17
2022-10-18T19:39:22.341Z,17.25
2022-10-18T19:42:35.882Z,17.30
2022-10-18T19:58:30.402Z,17.37
2022-10-18T20:01:48.567Z,17.35
2022-10-18T20:05:03.827Z,17.34
2022-10-18T20:08:17.091Z,17.31
2022-10-18T20:11:33.202Z,17.25
2022-10-18T20:14:47.158Z,17.22
2022-10-18T20:18:00.119Z,17.19
2022-10-18T20:21:16.834Z,17.19
2022-10-18T20:24:33.303Z,17.20
2022-10-18T20:27:46.427Z,17.20
2022-10-18T20:31:12.876Z,17.21
2022-10-18T20:34:26.222Z,17.24
2022-10-18T20:37:38.084Z,17.22
2022-10-18T20:40:50.014Z,17.22
2022-10-18T20:44:03.663Z,17.20
2022-10-18T20:47:15.439Z,17.10
2022-10-18T20:50:27.357Z,16.71
2022-10-18T20:53:40.667Z,16.28
2022-10-18T20:56:52.318Z,15.77
2022-10-18T21:00:04.193Z,15.59
2022-10-18T21:03:16.001Z,15.38
2022-10-18T21:06:31.906Z,15.22
2022-10-18T21:09:43.766Z,14.97
2022-10-18T21:12:56.302Z,14.84
2022-10-18T21:16:09.766Z,14.82
2022-10-18T21:19:24.050Z,14.76
2022-10-18T21:22:35.963Z,14.72
2022-10-18T21:25:53.042Z,14.80
2022-10-18T21:29:05.734Z,14.84
2022-10-18T21:32:17.502Z,14.82
2022-10-18T21:35:31.140Z,14.86
2022-10-18T21:38:43.091Z,14.87
2022-10-18T21:41:55.334Z,14.85
2022-10-18T21:45:07.097Z,14.80
2022-10-18T21:48:18.911Z,14.67
2022-10-18T21:51:32.642Z,14.53
2022-10-18T21:54:44.462Z,14.52
2022-10-18T21:57:56.063Z,14.55
2022-10-18T22:01:09.974Z,14.63
2022-10-18T22:04:28.425Z,14.62
2022-10-18T22:07:40.066Z,14.61
2022-10-18T22:10:51.759Z,14.63
2022-10-18T22:14:04.176Z,14.53
2022-10-18T22:17:15.773Z,14.61
2022-10-18T22:20:27.431Z,14.54
2022-10-18T22:23:43.856Z,14.44
2022-10-18T22:26:55.671Z,14.33
2022-10-18T22:30:07.764Z,14.42
2022-10-18T22:33:19.394Z,14.43
2022-10-18T22:36:32.317Z,14.46
2022-10-18T22:39:43.918Z,14.47
2022-10-18T22:42:57.411Z,14.47
2022-10-18T22:46:11.342Z,14.46
2022-10-18T22:49:23.106Z,14.45
2022-10-18T22:52:35.152Z,14.41
2022-10-18T22:55:48.688Z,14.45
2022-10-18T22:59:00.285Z,14.41
2022-10-18T23:02:11.941Z,14.31
2022-10-18T23:05:23.792Z,14.30
2022-10-18T23:08:36.079Z,14.33
2022-10-18T23:11:48.151Z,14.34
2022-10-18T23:14:59.823Z,14.32
2022-10-18T23:18:11.595Z,14.26
2022-10-18T23:21:24.507Z,14.19
2022-10-18T23:24:36.434Z,14.20
2022-10-18T23:27:48.194Z,14.18
2022-10-18T23:30:59.808Z,14.15
2022-10-18T23:34:12.085Z,14.14
2022-10-18T23:37:23.735Z,14.13
2022-10-18T23:40:35.486Z,14.11
2022-10-18T23:43:48.396Z,14.11
2022-10-18T23:47:00.103Z,14.13
2022-10-18T23:50:14.162Z,14.12
2022-10-18T23:53:26.659Z,14.13
2022-10-18T23:56:38.452Z,14.13
2022-10-18T23:59:50.101Z,14.11
